Aeroporto :
LOGIN :

Iscrizione | Disclaimer

   EN    FR    IT 

 










Sommario :    VFR   VFR Marginale   IFR   IFR Intensivo   IFR Molto Intensivo
Visibilità : 
Base nubi : 
>= 8 km
>= 3000ft
5 / 8 km
1000 / 3000 ft
1500m / 5 km
500 / 1000 ft
800 / 1500m
200 / 500 ft
< 800m
< 200 ft
Simboli :   Temporali  Nebbia  Neve Forte  Precipitazioni Forti  Vento > 20 kt
SIGMETs :   Varie  Temporali  Ghiacco  Turbolenza  Onda orograficha  Ceneri Vulcaniche






- Altitudine del aeroporto : 273 ft


EGXT - RAF Wittering Stamford

ULTIMO METAR :
  • 040950Z AUTO 27015KT 8000 UP BKN006/// SCT013/// 01/01 Q0972

METARs OBSOLETI :
  • 040850Z 28015KT 6000 RASN BKN006 OVC010 01/01 Q0972 RMK YLO1
  • 040750Z 29014KT 3700 RASN BKN006 OVC014 01/01 Q0971 RMK YLO1

TAF TAF EGXT
Valido dal 04 a 09 ore il 04 a 18 ore UTC


040742Z 0409/0418 30012KT 5000 -RASN BKN004
TEMPO 0409/0412 2500 RASN
PROB30
TEMPO 0409/0412 0700 SN BKN002
BECMG 0412/0415 9999 -RA BKN008
BECMG 0415/0418 NSW FEW012 BKN030



MetMap, La meteo Aeronautica in un colpo d'occhio ! - Copyright ORBIFLY Dicembre 2007 - Disclaimer

ORBIFLY MET'MAP TEAM :

Programmazione e sviluppo : Alexandra Zaïnal
Concezione : Baudouin d'Aumeries
Aiuto per la programmazione : Marc-Olivier Méhu
Supporto tecnico e logistico : Manuel Goepfert
Aiuto per la traduzione : Arnaldo La Scala

Contatto : metmap@orbifly.com




FONTI E CREDITI :

   NOAA